createdAt,value
2023-01-28T00:01:41.255Z,-7.40
2023-01-28T00:04:09.912Z,-7.41
2023-01-28T00:06:39.141Z,-7.42
2023-01-28T00:09:07.915Z,-7.46
2023-01-28T00:11:37.566Z,-7.47
2023-01-28T00:14:06.504Z,-7.49
2023-01-28T00:16:35.196Z,-7.48
2023-01-28T00:19:04.157Z,-7.50
2023-01-28T00:21:32.726Z,-7.53
2023-01-28T00:24:01.411Z,-7.55
2023-01-28T00:29:15.904Z,-7.61
2023-01-28T00:31:45.687Z,-7.63
2023-01-28T00:34:14.240Z,-7.67
2023-01-28T00:36:43.333Z,-7.72
2023-01-28T00:39:14.048Z,-7.78
2023-01-28T00:41:43.671Z,-7.84
2023-01-28T00:44:12.360Z,-7.91
2023-01-28T00:46:42.265Z,-7.97
2023-01-28T00:49:10.765Z,-8.04
2023-01-28T00:51:39.233Z,-8.11
2023-01-28T00:54:08.045Z,-8.18
2023-01-28T00:56:37.161Z,-8.23
2023-01-28T00:59:09.023Z,-8.28
2023-01-28T01:01:37.947Z,-8.31
2023-01-28T01:04:07.074Z,-8.34
2023-01-28T01:06:38.937Z,-8.36
2023-01-28T01:09:08.846Z,-8.37
2023-01-28T01:11:37.528Z,-8.39
2023-01-28T01:14:07.380Z,-8.42
2023-01-28T01:16:36.499Z,-8.44
2023-01-28T01:19:05.534Z,-8.47
2023-01-28T01:21:33.935Z,-8.49
2023-01-28T01:24:02.505Z,-8.51
2023-01-28T01:26:31.793Z,-8.52
2023-01-28T01:29:00.718Z,-8.53
2023-01-28T01:31:29.610Z,-8.53
2023-01-28T01:33:58.367Z,-8.55
2023-01-28T01:36:27.868Z,-8.59
2023-01-28T01:38:57.075Z,-8.61
2023-01-28T01:41:28.786Z,-8.63
2023-01-28T01:44:01.710Z,-8.65
2023-01-28T01:46:37.874Z,-8.67
2023-01-28T01:49:26.219Z,-8.69
2023-01-28T01:52:03.726Z,-8.70
2023-01-28T01:54:33.626Z,-8.71
2023-01-28T01:57:03.451Z,-8.71
2023-01-28T01:59:32.873Z,-8.69
2023-01-28T02:02:02.076Z,-8.64
2023-01-28T02:04:33.740Z,-8.56
2023-01-28T02:07:02.265Z,-8.48
2023-01-28T02:09:36.483Z,-8.40
2023-01-28T02:12:10.104Z,-8.34
2023-01-28T02:14:41.606Z,-8.28
2023-01-28T02:17:10.563Z,-8.23
2023-01-28T02:19:55.304Z,-8.18
2023-01-28T02:22:32.842Z,-8.14
2023-01-28T02:25:40.199Z,-8.11
2023-01-28T02:28:33.217Z,-8.06
2023-01-28T02:31:09.270Z,-8.03
2023-01-28T02:33:59.880Z,-7.99
2023-01-28T02:36:42.005Z,-7.96
2023-01-28T02:39:20.064Z,-7.94
2023-01-28T02:42:25.886Z,-7.91
2023-01-28T02:44:54.484Z,-7.87
2023-01-28T02:47:45.169Z,-7.84
2023-01-28T02:50:16.026Z,-7.81
2023-01-28T02:53:25.228Z,-7.79
2023-01-28T02:56:16.751Z,-7.73
2023-01-28T02:58:57.789Z,-7.70
2023-01-28T03:01:39.681Z,-7.67
2023-01-28T03:04:23.715Z,-7.63
2023-01-28T03:06:54.462Z,-7.58
2023-01-28T03:09:22.759Z,-7.54
2023-01-28T03:12:18.043Z,-7.51
2023-01-28T03:15:08.926Z,-7.46
2023-01-28T03:18:06.219Z,-7.43
2023-01-28T03:20:57.567Z,-7.38
2023-01-28T03:23:46.771Z,-7.36
2023-01-28T03:26:36.206Z,-7.32
2023-01-28T03:29:26.912Z,-7.29
2023-01-28T03:32:14.649Z,-7.26
2023-01-28T03:35:02.168Z,-7.23
2023-01-28T03:37:32.287Z,-7.22
2023-01-28T03:40:10.557Z,-7.21
2023-01-28T03:42:39.228Z,-7.18
2023-01-28T03:45:35.066Z,-7.17
2023-01-28T03:48:05.493Z,-7.14
2023-01-28T03:50:35.142Z,-7.11
2023-01-28T03:53:14.911Z,-7.08
2023-01-28T03:55:50.281Z,-7.04
2023-01-28T03:58:19.369Z,-7.00
2023-01-28T04:00:48.063Z,-6.98
2023-01-28T04:03:18.060Z,-6.96
2023-01-28T04:06:00.136Z,-6.92
2023-01-28T04:08:37.843Z,-6.91
2023-01-28T04:11:45.222Z,-6.91
2023-01-28T04:14:18.924Z,-6.90
2023-01-28T04:17:07.812Z,-6.88
2023-01-28T04:19:38.237Z,-6.84
2023-01-28T04:22:10.517Z,-6.80
2023-01-28T04:24:42.364Z,-6.78
2023-01-28T04:27:11.529Z,-6.75
2023-01-28T04:29:40.131Z,-6.72
2023-01-28T04:32:29.846Z,-6.68
2023-01-28T04:35:27.245Z,-6.63
2023-01-28T04:38:10.147Z,-6.58
2023-01-28T04:41:11.540Z,-6.52
2023-01-28T04:43:40.897Z,-6.45
2023-01-28T04:46:30.078Z,-6.42
2023-01-28T04:49:13.031Z,-6.33
2023-01-28T04:51:48.278Z,-6.26
2023-01-28T04:54:33.135Z,-6.22
2023-01-28T04:57:04.371Z,-6.20
2023-01-28T04:59:33.992Z,-6.17
2023-01-28T05:02:03.340Z,-6.14
2023-01-28T05:04:31.864Z,-6.11
2023-01-28T05:07:01.189Z,-6.08
2023-01-28T05:09:34.255Z,-6.05
2023-01-28T05:12:04.172Z,-6.02
2023-01-28T05:14:33.777Z,-6.01
2023-01-28T05:17:08.448Z,-5.97
2023-01-28T05:19:38.112Z,-5.94
2023-01-28T05:22:11.823Z,-5.91
2023-01-28T05:24:45.621Z,-5.88
2023-01-28T05:27:15.742Z,-5.85
2023-01-28T05:29:44.387Z,-5.83
2023-01-28T05:32:13.226Z,-5.80
2023-01-28T05:34:41.803Z,-5.80
2023-01-28T05:37:13.772Z,-5.77
2023-01-28T05:39:42.960Z,-5.74
2023-01-28T05:42:11.769Z,-5.72
2023-01-28T05:44:45.702Z,-5.70
2023-01-28T05:47:34.617Z,-5.69
2023-01-28T05:50:14.628Z,-5.67
2023-01-28T05:53:07.958Z,-5.65
2023-01-28T05:55:37.683Z,-5.62
2023-01-28T05:58:06.468Z,-5.57
2023-01-28T06:00:35.428Z,-5.55
2023-01-28T06:03:04.933Z,-5.50
2023-01-28T06:05:34.206Z,-5.48
2023-01-28T06:08:03.401Z,-5.44
2023-01-28T06:10:32.933Z,-5.40
2023-01-28T06:13:02.398Z,-5.34
2023-01-28T06:15:57.661Z,-5.22
2023-01-28T06:18:26.534Z,-5.10
2023-01-28T06:20:55.635Z,-4.98
2023-01-28T06:23:24.525Z,-4.83
2023-01-28T06:25:56.607Z,-4.68
2023-01-28T06:28:26.252Z,-4.49
2023-01-28T06:30:55.153Z,-4.36
2023-01-28T06:33:24.529Z,-4.11
2023-01-28T06:35:53.728Z,-3.77
2023-01-28T06:38:22.463Z,-3.43
2023-01-28T06:40:56.226Z,-3.07
2023-01-28T06:43:28.449Z,-2.81
2023-01-28T06:45:58.264Z,-2.56
2023-01-28T06:48:27.001Z,-2.27
2023-01-28T06:50:56.556Z,-2.05
2023-01-28T06:53:24.935Z,-2.03
2023-01-28T06:55:54.032Z,-2.23
2023-01-28T06:58:22.446Z,-2.38
2023-01-28T07:00:51.125Z,-2.30
2023-01-28T07:03:19.790Z,-2.10
2023-01-28T07:05:48.270Z,-1.85
2023-01-28T07:08:16.919Z,-1.64
2023-01-28T07:10:45.328Z,-1.53
2023-01-28T07:13:16.289Z,-1.53
2023-01-28T07:15:44.874Z,-1.49
2023-01-28T07:18:13.413Z,-1.34
2023-01-28T07:20:43.043Z,-1.25
2023-01-28T07:23:12.589Z,-1.33
2023-01-28T07:25:41.034Z,-1.51
2023-01-28T07:28:10.366Z,-1.85
2023-01-28T07:30:39.489Z,-2.24
2023-01-28T07:33:08.212Z,-2.59
2023-01-28T07:35:36.796Z,-2.89
2023-01-28T07:38:05.745Z,-3.09
2023-01-28T07:40:34.402Z,-3.19
2023-01-28T07:43:03.137Z,-3.22
2023-01-28T07:45:39.004Z,-3.19
2023-01-28T07:48:08.945Z,-3.15
2023-01-28T07:50:37.536Z,-3.14
2023-01-28T07:53:07.436Z,-3.13
2023-01-28T07:55:36.421Z,-3.12
2023-01-28T07:58:06.957Z,-3.14
2023-01-28T08:00:36.685Z,-3.12
2023-01-28T08:03:07.551Z,-3.08
2023-01-28T08:05:45.922Z,-3.05
2023-01-28T08:08:14.909Z,-3.05
2023-01-28T08:10:44.256Z,-3.05
2023-01-28T08:13:14.128Z,-3.08
2023-01-28T08:15:42.631Z,-3.04
2023-01-28T08:18:13.642Z,-3.01
2023-01-28T08:20:43.689Z,-3.01
2023-01-28T08:23:13.080Z,-3.03
2023-01-28T08:25:41.733Z,-3.02
2023-01-28T08:28:10.889Z,-2.97
2023-01-28T08:30:39.860Z,-2.96
2023-01-28T08:33:09.625Z,-2.98
2023-01-28T08:35:38.436Z,-3.03
2023-01-28T08:38:07.737Z,-3.09
2023-01-28T08:40:36.565Z,-3.09
2023-01-28T08:43:07.471Z,-3.10
2023-01-28T08:45:36.565Z,-3.09
2023-01-28T08:48:05.820Z,-3.09
2023-01-28T08:50:36.516Z,-3.12
2023-01-28T08:53:06.949Z,-3.11
2023-01-28T08:55:35.769Z,-3.13
2023-01-28T08:58:11.162Z,-3.15
2023-01-28T09:00:40.052Z,-3.13
2023-01-28T09:03:08.430Z,-3.08
2023-01-28T09:05:38.468Z,-3.02
2023-01-28T09:08:14.862Z,-2.96
2023-01-28T09:10:43.255Z,-2.87
2023-01-28T09:13:14.345Z,-2.80
2023-01-28T09:15:43.218Z,-2.77
2023-01-28T09:18:11.831Z,-2.76
2023-01-28T09:20:40.619Z,-2.78
2023-01-28T09:23:09.998Z,-2.75
2023-01-28T09:25:38.481Z,-2.69
2023-01-28T09:28:07.218Z,-2.65
2023-01-28T09:30:37.418Z,-2.60
2023-01-28T09:33:06.667Z,-2.61
2023-01-28T09:35:35.525Z,-2.64
2023-01-28T09:38:04.996Z,-2.61
2023-01-28T09:40:42.152Z,-2.58
2023-01-28T09:43:27.746Z,-2.56
2023-01-28T09:45:58.064Z,-2.50
2023-01-28T09:48:32.968Z,-2.42
2023-01-28T09:51:02.045Z,-2.33
2023-01-28T09:53:37.253Z,-2.25
2023-01-28T09:56:14.724Z,-2.17
2023-01-28T09:58:43.833Z,-2.09
2023-01-28T10:01:12.483Z,-2.02
2023-01-28T10:03:53.610Z,-1.99
2023-01-28T10:06:30.962Z,-1.97
2023-01-28T10:09:21.618Z,-1.95
2023-01-28T10:12:34.884Z,-1.93
2023-01-28T10:15:30.258Z,-1.91
2023-01-28T10:18:17.549Z,-1.88
2023-01-28T10:20:51.298Z,-1.82
2023-01-28T10:23:41.435Z,-1.78
2023-01-28T10:26:37.462Z,-1.75
2023-01-28T10:29:14.051Z,-1.72
2023-01-28T10:32:16.820Z,-1.70
2023-01-28T10:34:45.503Z,-1.61
2023-01-28T10:37:14.664Z,-1.53
2023-01-28T10:39:43.003Z,-1.46
2023-01-28T10:42:28.185Z,-1.42
2023-01-28T10:45:02.004Z,-1.39
2023-01-28T10:47:46.441Z,-1.36
2023-01-28T10:50:23.858Z,-1.29
2023-01-28T10:52:55.584Z,-1.27
2023-01-28T10:55:29.071Z,-1.24
2023-01-28T10:57:58.233Z,-1.19
2023-01-28T11:00:36.335Z,-1.17
2023-01-28T11:03:04.872Z,-1.15
2023-01-28T11:05:35.375Z,-1.10
2023-01-28T11:08:24.863Z,-1.06
2023-01-28T11:10:53.759Z,-0.99
2023-01-28T11:13:26.920Z,-0.96
2023-01-28T11:16:04.727Z,-0.96
2023-01-28T11:18:36.290Z,-0.95
2023-01-28T11:21:05.863Z,-0.97
2023-01-28T11:23:39.789Z,-1.02
2023-01-28T11:26:09.338Z,-1.06
2023-01-28T11:28:40.999Z,-1.03
2023-01-28T11:31:11.300Z,-1.00
2023-01-28T11:33:48.427Z,-0.96
2023-01-28T11:36:29.208Z,-0.93
2023-01-28T11:39:02.451Z,-0.91
2023-01-28T11:41:37.939Z,-0.92
2023-01-28T11:44:16.717Z,-0.94
2023-01-28T11:47:16.360Z,-0.90
2023-01-28T11:50:09.917Z,-0.84
2023-01-28T11:53:10.957Z,-0.81
2023-01-28T11:55:42.520Z,-0.78
2023-01-28T11:58:50.209Z,-0.72
2023-01-28T12:01:57.910Z,-0.70
2023-01-28T12:04:48.596Z,-0.71
2023-01-28T12:07:21.600Z,-0.70
2023-01-28T12:09:50.186Z,-0.68
2023-01-28T12:12:21.610Z,-0.66
2023-01-28T12:15:08.528Z,-0.63
2023-01-28T12:17:40.295Z,-0.63
2023-01-28T12:20:31.906Z,-0.65
2023-01-28T12:23:48.210Z,-0.70
2023-01-28T12:26:26.193Z,-0.71
2023-01-28T12:29:03.856Z,-0.72
2023-01-28T12:31:39.042Z,-0.72
2023-01-28T12:34:37.401Z,-0.71
2023-01-28T12:37:34.119Z,-0.67
2023-01-28T12:40:34.393Z,-0.62
2023-01-28T12:43:04.006Z,-0.62
2023-01-28T12:45:34.470Z,-0.61
2023-01-28T12:48:08.458Z,-0.62
2023-01-28T12:50:42.633Z,-0.64
2023-01-28T12:53:34.382Z,-0.68
2023-01-28T12:56:09.416Z,-0.69
2023-01-28T12:58:42.099Z,-0.70
2023-01-28T13:01:13.319Z,-0.70
2023-01-28T13:03:58.389Z,-0.69
2023-01-28T13:06:38.806Z,-0.69
2023-01-28T13:09:21.089Z,-0.69
2023-01-28T13:11:51.393Z,-0.68
2023-01-28T13:14:22.383Z,-0.68
2023-01-28T13:16:50.830Z,-0.68
2023-01-28T13:19:19.432Z,-0.67
2023-01-28T13:21:50.112Z,-0.65
2023-01-28T13:24:21.580Z,-0.64
2023-01-28T13:26:53.858Z,-0.63
2023-01-28T13:29:25.521Z,-0.63
2023-01-28T13:31:55.877Z,-0.63
2023-01-28T13:34:38.418Z,-0.63
2023-01-28T13:37:41.053Z,-0.64
2023-01-28T13:40:12.716Z,-0.61
2023-01-28T13:42:41.418Z,-0.60
2023-01-28T13:45:16.000Z,-0.62
2023-01-28T13:47:49.092Z,-0.63
2023-01-28T13:50:20.816Z,-0.64
2023-01-28T13:53:02.903Z,-0.65
2023-01-28T13:55:44.657Z,-0.65
2023-01-28T13:58:41.386Z,-0.65
2023-01-28T14:01:35.708Z,-0.65
2023-01-28T14:04:14.483Z,-0.64
2023-01-28T14:07:21.280Z,-0.65
2023-01-28T14:10:08.873Z,-0.66
2023-01-28T14:13:02.078Z,-0.66
2023-01-28T14:15:56.972Z,-0.68
2023-01-28T14:18:26.982Z,-0.69
2023-01-28T14:20:56.794Z,-0.70
2023-01-28T14:23:27.071Z,-0.69
2023-01-28T14:26:01.785Z,-0.68
2023-01-28T14:28:34.935Z,-0.68
2023-01-28T14:31:24.241Z,-0.68
2023-01-28T14:33:52.785Z,-0.66
2023-01-28T14:36:21.474Z,-0.66
2023-01-28T14:38:50.055Z,-0.66
2023-01-28T14:41:24.209Z,-0.66
2023-01-28T14:43:54.568Z,-0.66
2023-01-28T14:46:44.093Z,-0.67
2023-01-28T14:49:40.403Z,-0.65
2023-01-28T14:52:21.347Z,-0.64
2023-01-28T14:54:58.636Z,-0.63
2023-01-28T14:57:47.531Z,-0.64
2023-01-28T15:00:27.894Z,-0.63
2023-01-28T15:02:56.542Z,-0.62
2023-01-28T15:05:28.443Z,-0.62
2023-01-28T15:07:56.787Z,-0.63
2023-01-28T15:10:31.588Z,-0.62
2023-01-28T15:13:11.559Z,-0.61
2023-01-28T15:15:42.259Z,-0.60
2023-01-28T15:18:19.617Z,-0.59
2023-01-28T15:20:50.177Z,-0.58
2023-01-28T15:23:22.707Z,-0.57
2023-01-28T15:25:51.413Z,-0.57
2023-01-28T15:28:29.124Z,-0.56
2023-01-28T15:30:58.263Z,-0.56
2023-01-28T15:33:28.450Z,-0.56
2023-01-28T15:35:57.719Z,-0.55
2023-01-28T15:38:29.486Z,-0.55
2023-01-28T15:41:02.105Z,-0.54
2023-01-28T15:43:32.684Z,-0.54
2023-01-28T15:46:01.880Z,-0.54
2023-01-28T15:48:34.266Z,-0.54
2023-01-28T15:51:04.712Z,-0.52
2023-01-28T15:53:35.912Z,-0.51
2023-01-28T15:56:09.316Z,-0.51
2023-01-28T15:58:41.827Z,-0.52
2023-01-28T16:01:11.358Z,-0.52
2023-01-28T16:03:41.800Z,-0.52
2023-01-28T16:06:16.781Z,-0.53
2023-01-28T16:08:51.820Z,-0.55
2023-01-28T16:11:28.765Z,-0.55
2023-01-28T16:13:58.093Z,-0.56
2023-01-28T16:16:34.619Z,-0.56
2023-01-28T16:19:07.253Z,-0.57
2023-01-28T16:21:38.599Z,-0.59
2023-01-28T16:24:20.068Z,-0.60
2023-01-28T16:27:05.266Z,-0.61
2023-01-28T16:29:34.137Z,-0.61
2023-01-28T16:32:03.922Z,-0.63
2023-01-28T16:34:33.479Z,-0.65
2023-01-28T16:37:02.446Z,-0.66
2023-01-28T16:39:30.820Z,-0.68
2023-01-28T16:41:59.272Z,-0.70
2023-01-28T16:44:28.234Z,-0.71
2023-01-28T16:46:56.892Z,-0.72
2023-01-28T16:49:25.888Z,-0.74
2023-01-28T16:51:54.799Z,-0.74
2023-01-28T16:54:23.241Z,-0.76
2023-01-28T16:56:55.414Z,-0.77
2023-01-28T16:59:23.992Z,-0.80
2023-01-28T17:01:52.388Z,-0.82
2023-01-28T17:04:21.364Z,-0.84
2023-01-28T17:06:50.201Z,-0.85
2023-01-28T17:09:20.070Z,-0.86
2023-01-28T17:11:48.644Z,-0.88
2023-01-28T17:14:17.457Z,-0.89
2023-01-28T17:16:45.922Z,-0.91
2023-01-28T17:19:14.505Z,-0.93
2023-01-28T17:21:43.101Z,-0.97
2023-01-28T17:24:11.556Z,-0.99
2023-01-28T17:26:40.294Z,-1.02
2023-01-28T17:29:08.844Z,-1.03
2023-01-28T17:31:37.947Z,-1.04
2023-01-28T17:34:08.370Z,-1.03
2023-01-28T17:36:37.297Z,-1.05
2023-01-28T17:39:07.745Z,-1.08
2023-01-28T17:41:36.571Z,-1.09
2023-01-28T17:44:05.417Z,-1.10
2023-01-28T17:46:34.973Z,-1.10
2023-01-28T17:49:03.822Z,-1.09
2023-01-28T17:51:32.350Z,-1.10
2023-01-28T17:54:01.813Z,-1.11
2023-01-28T17:56:31.483Z,-1.13
2023-01-28T17:59:06.695Z,-1.13
2023-01-28T18:01:37.370Z,-1.16
2023-01-28T18:04:05.917Z,-1.18
2023-01-28T18:06:35.218Z,-1.20
2023-01-28T18:09:04.209Z,-1.22
2023-01-28T18:11:33.284Z,-1.23
2023-01-28T18:14:01.797Z,-1.25
2023-01-28T18:16:30.423Z,-1.26
2023-01-28T18:18:59.067Z,-1.26
2023-01-28T18:21:51.762Z,-1.27
2023-01-28T18:24:23.937Z,-1.28
2023-01-28T18:26:55.574Z,-1.30
2023-01-28T18:29:25.060Z,-1.30
2023-01-28T18:31:55.329Z,-1.29
2023-01-28T18:34:24.862Z,-1.30
2023-01-28T18:36:53.876Z,-1.29
2023-01-28T18:39:23.565Z,-1.28
2023-01-28T18:41:54.245Z,-1.29
2023-01-28T18:44:23.513Z,-1.29
2023-01-28T18:46:53.608Z,-1.30
2023-01-28T18:49:22.385Z,-1.31
2023-01-28T18:51:51.083Z,-1.32
2023-01-28T18:54:20.730Z,-1.33
2023-01-28T18:56:49.416Z,-1.33
2023-01-28T18:59:17.809Z,-1.33
2023-01-28T19:01:48.155Z,-1.34
2023-01-28T19:04:16.980Z,-1.35
2023-01-28T19:06:46.169Z,-1.35
2023-01-28T19:09:15.345Z,-1.34
2023-01-28T19:11:44.159Z,-1.35
2023-01-28T19:14:14.355Z,-1.37
2023-01-28T19:16:43.081Z,-1.36
2023-01-28T19:19:12.388Z,-1.37
2023-01-28T19:21:42.895Z,-1.38
2023-01-28T19:24:14.150Z,-1.38
2023-01-28T19:26:43.191Z,-1.39
2023-01-28T19:29:15.496Z,-1.38
2023-01-28T19:31:44.785Z,-1.39
2023-01-28T19:34:13.389Z,-1.40
2023-01-28T19:36:42.929Z,-1.40
2023-01-28T19:39:12.044Z,-1.40
2023-01-28T19:41:40.413Z,-1.40
2023-01-28T19:44:09.671Z,-1.39
2023-01-28T19:46:38.196Z,-1.40
2023-01-28T19:49:06.992Z,-1.40
2023-01-28T19:51:35.738Z,-1.40
2023-01-28T19:54:04.523Z,-1.41
2023-01-28T19:56:36.265Z,-1.42
2023-01-28T19:59:05.472Z,-1.42
2023-01-28T20:01:35.710Z,-1.43
2023-01-28T20:04:05.202Z,-1.43
2023-01-28T20:06:34.400Z,-1.44
2023-01-28T20:09:15.102Z,-1.45
2023-01-28T20:11:43.580Z,-1.46
2023-01-28T20:14:12.221Z,-1.48
2023-01-28T20:16:41.332Z,-1.48
2023-01-28T20:19:14.996Z,-1.48
2023-01-28T20:21:43.511Z,-1.49
2023-01-28T20:24:12.746Z,-1.51
2023-01-28T20:26:42.358Z,-1.53
2023-01-28T20:29:15.430Z,-1.55
2023-01-28T20:31:54.710Z,-1.57
2023-01-28T20:34:34.295Z,-1.59
2023-01-28T20:37:04.057Z,-1.61
2023-01-28T20:39:33.013Z,-1.65
2023-01-28T20:42:03.349Z,-1.69
2023-01-28T20:44:35.645Z,-1.72
2023-01-28T20:47:04.540Z,-1.74
2023-01-28T20:49:33.570Z,-1.77
2023-01-28T20:52:02.987Z,-1.80
2023-01-28T20:54:34.728Z,-1.83
2023-01-28T20:57:03.364Z,-1.85
2023-01-28T20:59:32.519Z,-1.88
2023-01-28T21:02:01.447Z,-1.91
2023-01-28T21:04:30.806Z,-1.94
2023-01-28T21:07:01.438Z,-1.97
2023-01-28T21:09:30.382Z,-2.00
2023-01-28T21:12:00.517Z,-2.03
2023-01-28T21:14:29.542Z,-2.04
2023-01-28T21:16:58.346Z,-2.07
2023-01-28T21:19:27.122Z,-2.08
2023-01-28T21:21:55.702Z,-2.09
2023-01-28T21:24:26.611Z,-2.09
2023-01-28T21:26:55.244Z,-2.10
2023-01-28T21:29:24.038Z,-2.12
2023-01-28T21:31:52.554Z,-2.12
2023-01-28T21:34:21.795Z,-2.13
2023-01-28T21:36:50.178Z,-2.15
2023-01-28T21:39:18.704Z,-2.16
2023-01-28T21:41:47.957Z,-2.17
2023-01-28T21:44:16.796Z,-2.17
2023-01-28T21:46:46.428Z,-2.19
2023-01-28T21:49:15.655Z,-2.20
2023-01-28T21:51:47.403Z,-2.21
2023-01-28T21:54:17.560Z,-2.22
2023-01-28T21:56:49.198Z,-2.23
2023-01-28T21:59:30.993Z,-2.24
2023-01-28T22:02:01.269Z,-2.28
2023-01-28T22:04:34.280Z,-2.30
2023-01-28T22:07:04.008Z,-2.33
2023-01-28T22:09:33.761Z,-2.35
2023-01-28T22:12:05.452Z,-2.37
2023-01-28T22:14:38.449Z,-2.39
2023-01-28T22:17:09.390Z,-2.42
2023-01-28T22:19:39.149Z,-2.44
2023-01-28T22:22:07.744Z,-2.46
2023-01-28T22:24:36.282Z,-2.47
2023-01-28T22:27:04.840Z,-2.47
2023-01-28T22:29:33.400Z,-2.48
2023-01-28T22:32:04.663Z,-2.49
2023-01-28T22:34:33.049Z,-2.49
2023-01-28T22:37:01.755Z,-2.50
2023-01-28T22:39:30.388Z,-2.50
2023-01-28T22:41:59.230Z,-2.50
2023-01-28T22:44:27.590Z,-2.50
2023-01-28T22:46:56.174Z,-2.50
2023-01-28T22:49:26.911Z,-2.50
2023-01-28T22:51:55.218Z,-2.50
2023-01-28T22:54:23.881Z,-2.51
2023-01-28T22:56:52.353Z,-2.51
2023-01-28T22:59:20.891Z,-2.51
2023-01-28T23:01:49.465Z,-2.51
2023-01-28T23:04:17.813Z,-2.51
2023-01-28T23:06:50.407Z,-2.51
2023-01-28T23:09:19.315Z,-2.51
2023-01-28T23:11:47.795Z,-2.52
2023-01-28T23:14:35.392Z,-2.52
2023-01-28T23:17:22.443Z,-2.53
2023-01-28T23:20:09.721Z,-2.53
2023-01-28T23:22:57.370Z,-2.55
2023-01-28T23:25:25.925Z,-2.57
2023-01-28T23:27:54.511Z,-2.57
2023-01-28T23:30:26.195Z,-2.59
2023-01-28T23:32:57.068Z,-2.59
2023-01-28T23:35:26.104Z,-2.61
2023-01-28T23:37:54.887Z,-2.61
2023-01-28T23:40:24.705Z,-2.63
2023-01-28T23:42:53.898Z,-2.65
2023-01-28T23:45:22.384Z,-2.65
2023-01-28T23:47:52.531Z,-2.66
2023-01-28T23:50:21.291Z,-2.68
2023-01-28T23:52:49.777Z,-2.70
2023-01-28T23:55:18.473Z,-2.71
2023-01-28T23:57:46.846Z,-2.72
